Time;durP1;ratioP1;P1;durP2;ratioP2;P2;SDS_P1;SDS_P2;PMS_P1;PMS_P2;Temp;Humidity;BMP_temperature;BMP_pressure;BME280_temperature;BME280_humidity;BME280_pressure;Samples;Min_cycle;Max_cycle;Signal;HPM_P1;HPM_P2
2023/06/18 04:04:26;;;;;;;4.60;4.20;;;14.30;99.90;;;;;;5971286;23;20496;-67
2023/06/18 04:06:52;;;;;;;5.13;4.30;;;14.40;99.90;;;;;;4994131;28;20520;-67
2023/06/18 04:09:17;;;;;;;4.20;3.87;;;14.40;99.90;;;;;;4995943;28;20166;-67
2023/06/18 04:11:45;;;;;;;4.03;3.60;;;14.50;99.90;;;;;;4994798;28;20178;-68
2023/06/18 04:14:10;;;;;;;5.43;4.77;;;14.60;99.90;;;;;;4994893;28;20197;-67
2023/06/18 04:16:36;;;;;;;4.63;4.20;;;14.70;99.90;;;;;;4995205;28;20822;-68
2023/06/18 04:19:01;;;;;;;5.00;3.40;;;14.80;99.90;;;;;;4995387;28;20668;-67
2023/06/18 04:21:27;;;;;;;4.60;3.50;;;14.90;99.90;;;;;;4995243;28;20241;-67
2023/06/18 04:23:54;;;;;;;4.03;3.70;;;15.00;99.90;;;;;;4993500;28;20229;-68
2023/06/18 04:26:19;;;;;;;4.17;3.80;;;15.10;99.90;;;;;;4995321;28;20183;-68
2023/06/18 04:28:45;;;;;;;6.00;4.20;;;15.20;99.90;;;;;;4995032;28;20458;-68
2023/06/18 04:31:11;;;;;;;5.13;4.73;;;15.30;99.90;;;;;;4995125;28;20927;-67
2023/06/18 04:33:36;;;;;;;3.77;3.50;;;15.40;99.90;;;;;;4994357;28;20175;-67
2023/06/18 04:36:02;;;;;;;4.20;3.90;;;15.40;99.90;;;;;;4994057;28;20198;-67
2023/06/18 04:38:28;;;;;;;5.40;4.23;;;15.50;99.90;;;;;;4995167;28;20171;-68
2023/06/18 04:40:53;;;;;;;6.33;3.90;;;15.50;99.90;;;;;;4994367;28;20203;-68
2023/06/18 04:43:19;;;;;;;4.03;3.73;;;15.70;99.90;;;;;;4994530;28;20175;-67
2023/06/18 04:45:48;;;;;;;4.60;4.20;;;15.90;99.90;;;;;;4994699;28;20199;-68
2023/06/18 04:48:15;;;;;;;5.60;5.10;;;16.20;99.90;;;;;;4993505;28;20673;-68
2023/06/18 04:50:41;;;;;;;5.10;4.60;;;16.40;99.90;;;;;;4995051;28;20458;-68
2023/06/18 04:53:07;;;;;;;5.63;4.80;;;16.60;99.20;;;;;;4994665;28;20410;-68
2023/06/18 04:55:33;;;;;;;5.70;5.30;;;16.80;98.70;;;;;;4994623;28;20425;-68
2023/06/18 04:57:58;;;;;;;4.30;3.90;;;16.90;98.70;;;;;;4994766;28;20405;-68
2023/06/18 05:00:24;;;;;;;5.20;4.70;;;17.00;97.60;;;;;;4994117;28;20667;-68
2023/06/18 05:02:50;;;;;;;6.07;5.10;;;17.20;97.10;;;;;;4994543;28;20158;-67
2023/06/18 05:05:15;;;;;;;4.80;4.27;;;17.30;96.90;;;;;;4993899;28;20620;-68
2023/06/18 05:07:42;;;;;;;4.73;4.33;;;17.40;96.00;;;;;;4994523;28;20184;-67
2023/06/18 05:10:08;;;;;;;5.20;4.13;;;17.40;95.70;;;;;;4994409;28;20891;-67
2023/06/18 05:12:34;;;;;;;5.87;5.13;;;17.40;95.30;;;;;;4994582;28;20402;-68
2023/06/18 05:15:00;;;;;;;6.87;4.90;;;17.40;95.30;;;;;;4993886;28;20436;-68
2023/06/18 05:17:25;;;;;;;4.23;3.93;;;17.40;95.20;;;;;;4994497;28;20411;-68
2023/06/18 05:19:51;;;;;;;5.60;4.60;;;17.40;95.60;;;;;;4994244;28;20170;-68
2023/06/18 05:22:17;;;;;;;6.03;4.20;;;17.40;96.20;;;;;;4994351;28;20253;-69
2023/06/18 05:24:42;;;;;;;4.77;4.23;;;17.50;96.10;;;;;;4993762;28;20278;-68
2023/06/18 05:27:08;;;;;;;4.40;3.93;;;17.50;95.60;;;;;;4994119;28;20255;-68
2023/06/18 05:29:33;;;;;;;4.73;4.30;;;17.40;95.70;;;;;;4993675;28;20188;-68
2023/06/18 05:31:59;;;;;;;4.10;3.80;;;17.40;95.80;;;;;;4994333;28;20219;-69
2023/06/18 05:34:24;;;;;;;5.00;4.10;;;17.40;96.20;;;;;;4993719;28;20193;-68
2023/06/18 05:36:50;;;;;;;5.03;4.53;;;17.60;96.10;;;;;;4994316;28;20195;-68
2023/06/18 05:39:16;;;;;;;4.60;4.20;;;18.00;95.90;;;;;;4994087;28;20176;-68
2023/06/18 05:41:42;;;;;;;4.47;4.07;;;18.30;95.40;;;;;;4993953;28;20579;-68
2023/06/18 05:44:07;;;;;;;4.47;4.07;;;18.50;94.40;;;;;;4993452;28;20465;-68
2023/06/18 05:46:33;;;;;;;4.03;3.63;;;18.70;94.20;;;;;;4992678;28;20659;-68
2023/06/18 05:48:58;;;;;;;4.90;4.40;;;18.80;93.80;;;;;;4993812;28;20675;-68
2023/06/18 05:51:24;;;;;;;5.77;4.80;;;18.80;93.60;;;;;;4994576;28;20171;-68
2023/06/18 05:53:49;;;;;;;4.47;4.07;;;18.80;93.40;;;;;;4997736;28;20168;-68
2023/06/18 05:56:15;;;;;;;4.17;3.77;;;18.70;93.80;;;;;;4997813;28;20202;-68
2023/06/18 05:58:41;;;;;;;3.40;3.10;;;18.80;93.80;;;;;;4997893;28;20532;-68
2023/06/18 06:01:06;;;;;;;4.67;4.37;;;18.90;93.60;;;;;;4997713;28;20171;-68
2023/06/18 06:03:35;;;;;;;4.67;3.90;;;19.00;93.60;;;;;;4997425;28;20172;-68
2023/06/18 06:06:01;;;;;;;7.13;4.20;;;18.90;93.30;;;;;;4996719;28;20203;-68
2023/06/18 06:08:27;;;;;;;4.13;3.63;;;19.00;93.30;;;;;;4978324;28;20451;-68
2023/06/18 06:10:52;;;;;;;5.60;5.10;;;19.10;93.20;;;;;;4978157;28;20465;-68
2023/06/18 06:13:19;;;;;;;4.80;4.40;;;19.10;93.10;;;;;;4977719;28;20160;-68
2023/06/18 06:15:44;;;;;;;5.00;4.60;;;19.30;93.20;;;;;;4978260;28;20192;-67
2023/06/18 06:18:10;;;;;;;4.67;4.27;;;19.40;92.80;;;;;;4978039;28;20449;-68
2023/06/18 06:20:35;;;;;;;3.97;3.67;;;19.60;92.80;;;;;;4978080;28;20184;-68
2023/06/18 06:23:01;;;;;;;4.63;4.27;;;19.80;92.50;;;;;;4977968;28;20179;-68
2023/06/18 06:25:26;;;;;;;3.93;3.63;;;20.10;91.60;;;;;;4977615;28;20192;-68
2023/06/18 06:27:52;;;;;;;3.93;3.53;;;20.20;91.30;;;;;;4977756;28;20202;-68
2023/06/18 06:30:18;;;;;;;3.50;3.20;;;20.40;91.30;;;;;;4978063;28;20168;-67
2023/06/18 06:32:43;;;;;;;3.87;3.57;;;20.70;91.20;;;;;;4978059;28;20622;-67
2023/06/18 06:35:09;;;;;;;4.27;3.97;;;21.00;91.00;;;;;;4976232;28;20189;-67
2023/06/18 06:37:35;;;;;;;3.43;3.23;;;21.20;90.70;;;;;;4977594;28;20666;-67
2023/06/18 06:40:01;;;;;;;5.30;3.60;;;21.50;90.00;;;;;;4977791;28;20176;-69
2023/06/18 06:42:26;;;;;;;3.30;3.00;;;21.70;89.50;;;;;;4977760;28;20478;-68
2023/06/18 06:44:52;;;;;;;4.13;3.60;;;21.80;88.30;;;;;;4977375;28;20514;-68
2023/06/18 06:47:18;;;;;;;4.33;3.93;;;21.90;86.80;;;;;;4977538;28;20202;-68
2023/06/18 06:49:45;;;;;;;3.87;3.57;;;22.00;86.00;;;;;;4977539;28;20169;-69
2023/06/18 06:52:11;;;;;;;4.23;3.93;;;21.90;85.80;;;;;;4977334;28;20171;-68
2023/06/18 06:54:36;;;;;;;4.70;4.30;;;21.90;86.50;;;;;;4976959;28;20459;-68
2023/06/18 06:57:02;;;;;;;3.87;3.50;;;22.00;84.80;;;;;;4977400;28;20432;-73
2023/06/18 06:59:28;;;;;;;3.47;3.27;;;22.20;83.90;;;;;;4977364;28;20221;-70
2023/06/18 07:01:53;;;;;;;4.47;4.10;;;22.40;81.30;;;;;;4976909;28;20434;-68
2023/06/18 07:04:19;;;;;;;4.23;3.87;;;22.60;82.10;;;;;;4976431;28;20218;-68
2023/06/18 07:06:45;;;;;;;4.77;4.37;;;22.80;81.30;;;;;;4983267;28;20183;-69
2023/06/18 07:09:10;;;;;;;4.10;3.70;;;22.90;81.40;;;;;;4996762;28;20180;-70
2023/06/18 07:11:37;;;;;;;3.30;3.10;;;23.00;79.00;;;;;;4996790;28;20178;-67
2023/06/18 07:14:03;;;;;;;3.43;3.20;;;23.10;77.90;;;;;;4996258;28;20515;-68
2023/06/18 07:16:28;;;;;;;3.97;3.67;;;23.30;78.30;;;;;;4996753;28;20892;-66
2023/06/18 07:18:54;;;;;;;4.23;3.83;;;23.50;77.70;;;;;;4996788;28;20453;-67
2023/06/18 07:21:20;;;;;;;4.90;4.50;;;23.70;77.10;;;;;;4996461;28;20172;-67
2023/06/18 07:23:45;;;;;;;5.03;4.03;;;23.80;75.90;;;;;;4996118;28;20179;-68
2023/06/18 07:26:11;;;;;;;3.33;3.13;;;24.00;75.30;;;;;;4996121;28;20198;-65
2023/06/18 07:28:36;;;;;;;4.00;3.60;;;24.40;75.00;;;;;;4996289;28;20727;-66
2023/06/18 07:31:02;;;;;;;3.30;3.00;;;25.00;74.30;;;;;;4996295;28;20638;-64
2023/06/18 07:33:27;;;;;;;4.50;4.10;;;25.70;73.50;;;;;;4995722;28;20254;-67
2023/06/18 07:35:53;;;;;;;4.57;4.20;;;26.50;71.70;;;;;;4996044;28;20200;-68
2023/06/18 07:38:19;;;;;;;4.63;4.20;;;27.30;67.30;;;;;;4995986;28;20258;-68
2023/06/18 07:40:44;;;;;;;4.53;4.13;;;27.90;66.30;;;;;;4995948;28;20183;-67
2023/06/18 07:43:11;;;;;;;7.10;6.47;;;28.60;63.30;;;;;;4995463;28;20203;-68
2023/06/18 07:45:36;;;;;;;5.17;4.77;;;29.70;59.60;;;;;;4995795;28;20242;-67
2023/06/18 07:48:03;;;;;;;5.37;4.97;;;30.40;59.70;;;;;;4995772;28;20428;-67
2023/06/18 07:50:29;;;;;;;5.30;4.90;;;31.00;58.80;;;;;;4995843;28;20643;-68
2023/06/18 07:52:55;;;;;;;5.20;4.80;;;31.50;55.80;;;;;;4995782;28;20420;-67
2023/06/18 07:55:20;;;;;;;5.20;4.80;;;31.90;55.60;;;;;;4995126;28;20202;-69
2023/06/18 07:57:46;;;;;;;5.30;4.90;;;32.20;55.30;;;;;;4995597;28;20254;-68
2023/06/18 08:00:12;;;;;;;5.60;4.80;;;32.50;54.40;;;;;;4995632;28;20577;-68
2023/06/18 08:02:38;;;;;;;5.37;4.97;;;32.80;53.20;;;;;;4995788;28;20194;-68
2023/06/18 08:05:04;;;;;;;5.40;4.90;;;33.20;53.20;;;;;;4993635;28;20446;-68
2023/06/18 08:07:30;;;;;;;4.90;4.60;;;33.60;52.20;;;;;;4995342;28;20191;-68
2023/06/18 08:09:55;;;;;;;4.97;4.60;;;34.10;51.80;;;;;;4994086;28;20964;-68
2023/06/18 08:12:21;;;;;;;4.63;4.30;;;34.50;50.70;;;;;;4984617;28;20179;-68
2023/06/18 08:14:47;;;;;;;5.70;5.20;;;34.90;50.70;;;;;;4977459;28;20679;-69
2023/06/18 08:17:16;;;;;;;4.50;4.20;;;35.60;49.30;;;;;;4994591;28;20172;-65
2023/06/18 08:19:45;;;;;;;6.07;5.60;;;36.30;47.70;;;;;;4993709;28;20473;-70
2023/06/18 08:22:15;;;;;;;4.90;4.50;;;36.80;47.40;;;;;;4994973;28;20789;-70
2023/06/18 08:24:41;;;;;;;4.83;4.53;;;37.00;46.60;;;;;;4994522;28;20537;-66
2023/06/18 08:27:07;;;;;;;5.30;5.00;;;37.40;46.30;;;;;;4995155;28;20415;-67
2023/06/18 08:29:33;;;;;;;5.87;5.37;;;37.40;46.60;;;;;;4994655;28;20430;-70
2023/06/18 08:32:04;;;;;;;5.53;4.80;;;37.50;46.30;;;;;;4994492;28;20267;-71
2023/06/18 08:34:34;;;;;;;5.37;5.07;;;37.70;45.40;;;;;;4994447;28;20573;-68
2023/06/18 08:37:00;;;;;;;4.77;4.47;;;38.00;45.20;;;;;;4994657;28;20501;-68
2023/06/18 08:39:26;;;;;;;5.40;5.00;;;38.10;44.70;;;;;;4994767;28;20490;-69
2023/06/18 08:41:54;;;;;;;4.83;4.50;;;37.90;44.60;;;;;;4993159;28;20426;-72
2023/06/18 08:44:23;;;;;;;4.93;4.63;;;38.10;44.70;;;;;;4993906;28;20446;-69
2023/06/18 08:46:49;;;;;;;4.60;4.30;;;38.40;44.20;;;;;;4992618;28;20442;-70
2023/06/18 08:49:16;;;;;;;4.70;4.40;;;38.50;44.20;;;;;;4993870;28;20435;-66
2023/06/18 08:51:44;;;;;;;5.13;4.80;;;38.60;44.10;;;;;;4994411;28;20455;-69
2023/06/18 08:54:15;;;;;;;4.60;4.30;;;38.70;43.10;;;;;;4994165;28;20434;-67
2023/06/18 08:56:45;;;;;;;4.93;4.60;;;39.10;42.90;;;;;;4994682;28;20773;-65
2023/06/18 08:59:12;;;;;;;4.30;4.00;;;39.40;41.50;;;;;;4993441;28;20877;-70
2023/06/18 09:01:38;;;;;;;4.20;3.97;;;39.30;40.00;;;;;;4993155;28;20566;-66
2023/06/18 09:04:05;;;;;;;4.47;4.17;;;39.30;39.80;;;;;;4993718;28;20425;-70
2023/06/18 09:06:32;;;;;;;4.40;4.10;;;39.60;40.40;;;;;;4994056;28;20525;-65
2023/06/18 09:09:00;;;;;;;4.70;4.40;;;39.80;38.80;;;;;;4994261;28;20544;-68
2023/06/18 09:11:26;;;;;;;5.13;4.80;;;39.70;39.20;;;;;;4985674;28;20407;-67
2023/06/18 09:13:52;;;;;;;4.60;4.30;;;39.60;38.90;;;;;;4987474;28;20430;-70
2023/06/18 09:16:18;;;;;;;4.57;4.27;;;39.90;38.80;;;;;;4974957;28;20440;-68
2023/06/18 09:18:45;;;;;;;5.40;5.00;;;39.90;37.60;;;;;;4986211;28;20474;-66
2023/06/18 09:21:30;;;;;;;4.70;4.40;;;40.00;37.50;;;;;;4985270;28;20905;-68
2023/06/18 09:23:56;;;;;;;4.50;4.20;;;40.10;37.40;;;;;;4985053;28;20617;-66
2023/06/18 09:26:21;;;;;;;4.67;4.37;;;40.30;37.30;;;;;;4982574;28;20537;-67
2023/06/18 09:28:49;;;;;;;4.83;4.43;;;40.10;37.30;;;;;;4974570;28;20710;-67
2023/06/18 09:31:24;;;;;;;5.23;4.83;;;40.10;37.80;;;;;;4986456;28;20194;-67
2023/06/18 09:33:50;;;;;;;4.37;4.07;;;40.40;37.50;;;;;;4993718;28;20840;-68
2023/06/18 09:36:16;;;;;;;4.80;4.40;;;40.10;36.90;;;;;;4993527;28;20454;-67
2023/06/18 09:38:42;;;;;;;5.10;4.70;;;40.10;37.10;;;;;;4993735;28;20660;-65
2023/06/18 09:41:18;;;;;;;5.07;4.77;;;40.40;36.90;;;;;;4990006;28;21071;-64
2023/06/18 09:43:51;;;;;;;5.07;4.67;;;40.30;35.90;;;;;;4992680;28;20430;-65
2023/06/18 09:46:18;;;;;;;4.43;4.13;;;40.60;35.90;;;;;;4993181;28;20446;-64
2023/06/18 09:48:45;;;;;;;4.20;3.80;;;40.50;35.30;;;;;;4993422;28;20869;-69
2023/06/18 09:51:14;;;;;;;4.53;4.23;;;39.70;35.50;;;;;;4993753;28;20445;-65
2023/06/18 09:53:40;;;;;;;4.27;3.97;;;39.60;35.70;;;;;;4993491;28;20430;-64
2023/06/18 09:56:13;;;;;;;4.47;4.17;;;39.70;35.20;;;;;;4993769;28;20430;-67
2023/06/18 09:58:50;;;;;;;4.20;4.00;;;39.90;35.10;;;;;;4993574;28;20396;-67
2023/06/18 10:01:17;;;;;;;5.10;4.80;;;40.10;34.50;;;;;;4993852;28;20417;-67
2023/06/18 10:03:44;;;;;;;4.27;4.00;;;40.30;34.20;;;;;;4993034;28;20455;-69
2023/06/18 10:06:10;;;;;;;4.80;4.50;;;40.10;35.00;;;;;;4992617;28;20853;-62
2023/06/18 10:08:38;;;;;;;4.63;4.33;;;39.80;34.30;;;;;;4992756;28;20418;-62
2023/06/18 10:11:08;;;;;;;4.70;4.40;;;39.60;34.60;;;;;;4992870;28;20199;-60
2023/06/18 10:14:08;;;;;;;4.63;4.33;;;39.10;34.40;;;;;;4992045;28;20407;-61
2023/06/18 10:16:35;;;;;;;4.43;4.13;;;38.90;34.80;;;;;;4960216;28;20788;-62
2023/06/18 10:19:09;;;;;;;4.20;3.90;;;38.90;34.60;;;;;;4973952;28;20493;-63
2023/06/18 10:21:37;;;;;;;4.60;4.30;;;39.00;34.70;;;;;;4974600;28;20415;-63
2023/06/18 10:24:12;;;;;;;3.57;3.27;;;39.30;34.30;;;;;;4973599;28;20419;-62
2023/06/18 10:26:38;;;;;;;4.83;4.53;;;39.20;33.80;;;;;;4974231;28;20419;-63
2023/06/18 10:29:05;;;;;;;4.47;4.17;;;39.30;34.20;;;;;;4974048;28;20906;-63
2023/06/18 10:31:31;;;;;;;4.57;4.17;;;39.00;34.40;;;;;;4986676;28;20788;-61
2023/06/18 10:33:57;;;;;;;6.80;6.30;;;38.80;34.30;;;;;;4993010;28;20406;-60
2023/06/18 10:36:23;;;;;;;4.50;4.20;;;38.50;34.00;;;;;;4992955;28;20427;-64
2023/06/18 10:38:49;;;;;;;4.50;4.20;;;37.90;34.00;;;;;;4995689;28;20211;-61
2023/06/18 10:41:20;;;;;;;3.87;3.67;;;37.50;35.10;;;;;;4997112;28;20441;-61
2023/06/18 10:43:53;;;;;;;4.23;3.90;;;37.00;34.70;;;;;;4996749;28;20456;-61
2023/06/18 10:46:21;;;;;;;4.53;4.13;;;37.00;35.30;;;;;;4996915;28;20421;-61
2023/06/18 10:49:15;;;;;;;4.70;4.40;;;36.60;35.70;;;;;;4996845;28;20430;-61
2023/06/18 10:52:01;;;;;;;4.20;3.90;;;36.80;35.90;;;;;;4996847;28;20913;-59
2023/06/18 10:54:29;;;;;;;4.90;4.50;;;36.90;35.80;;;;;;4986123;28;20457;-60
2023/06/18 10:56:56;;;;;;;4.20;3.90;;;36.50;35.70;;;;;;4996903;28;20785;-63
2023/06/18 10:59:43;;;;;;;4.80;4.50;;;36.50;36.40;;;;;;4996792;28;20438;-61
2023/06/18 11:02:11;;;;;;;4.20;3.90;;;36.70;37.00;;;;;;4996942;28;20407;-62
2023/06/18 11:04:37;;;;;;;4.50;4.10;;;37.00;36.90;;;;;;4996190;28;20446;-63
2023/06/18 11:07:25;;;;;;;4.70;4.30;;;37.30;36.00;;;;;;4996297;28;20431;-62
2023/06/18 11:10:04;;;;;;;4.73;4.30;;;37.40;35.60;;;;;;4996772;28;20769;-61
2023/06/18 11:12:36;;;;;;;4.20;3.90;;;37.10;35.20;;;;;;4996686;28;20392;-63
2023/06/18 11:15:14;;;;;;;4.77;4.37;;;36.60;35.30;;;;;;4996128;28;20515;-61
2023/06/18 11:17:42;;;;;;;4.30;4.00;;;36.00;36.30;;;;;;4995967;28;20441;-62
2023/06/18 11:20:10;;;;;;;4.53;4.20;;;35.20;36.50;;;;;;4996373;28;20418;-60
2023/06/18 11:22:37;;;;;;;4.17;3.87;;;34.60;37.10;;;;;;4996195;28;20413;-62
2023/06/18 11:25:05;;;;;;;4.20;3.90;;;33.80;38.10;;;;;;4995359;28;20436;-62
2023/06/18 11:27:32;;;;;;;4.10;3.80;;;33.20;38.90;;;;;;4996269;28;20476;-62
2023/06/18 11:29:57;;;;;;;4.50;4.10;;;32.80;38.20;;;;;;4995978;28;20393;-62
2023/06/18 11:32:25;;;;;;;4.20;3.90;;;32.60;38.90;;;;;;4996369;28;20394;-62
2023/06/18 11:34:51;;;;;;;3.90;3.60;;;32.40;39.20;;;;;;4995846;28;20206;-63
2023/06/18 11:37:17;;;;;;;3.83;3.53;;;32.30;40.30;;;;;;4994799;28;20968;-60
2023/06/18 11:39:43;;;;;;;3.57;3.27;;;32.20;39.90;;;;;;4996068;28;20442;-61
2023/06/18 11:42:14;;;;;;;4.03;3.40;;;32.10;39.80;;;;;;4996041;28;20472;-61
2023/06/18 11:44:50;;;;;;;3.90;3.60;;;32.00;39.30;;;;;;4995059;28;20793;-62
2023/06/18 11:47:16;;;;;;;4.50;4.10;;;31.90;39.30;;;;;;4995559;28;20444;-63
2023/06/18 11:49:44;;;;;;;3.90;3.60;;;31.80;39.80;;;;;;4996098;28;20432;-59
2023/06/18 11:52:12;;;;;;;4.37;4.07;;;31.80;40.90;;;;;;4995570;28;20415;-62
2023/06/18 11:54:39;;;;;;;3.60;3.30;;;31.90;41.10;;;;;;4995429;28;20826;-62
2023/06/18 11:57:10;;;;;;;3.57;3.30;;;32.00;41.30;;;;;;4995842;28;20473;-60
2023/06/18 11:59:36;;;;;;;3.90;3.60;;;32.10;41.10;;;;;;4995784;28;20450;-62
2023/06/18 12:02:12;;;;;;;3.90;3.60;;;32.00;39.90;;;;;;4994259;28;20820;-61
2023/06/18 12:04:38;;;;;;;3.30;3.00;;;31.90;39.60;;;;;;4994908;28;20447;-63
2023/06/18 12:07:03;;;;;;;3.30;3.00;;;31.60;40.30;;;;;;4995502;28;20393;-62
2023/06/18 12:09:34;;;;;;;4.83;3.50;;;31.50;40.20;;;;;;4995513;28;20397;-61
2023/06/18 12:12:11;;;;;;;3.20;2.93;;;31.30;40.70;;;;;;4995503;28;20521;-60
2023/06/18 12:15:08;;;;;;;5.20;4.63;;;31.20;40.90;;;;;;4995076;28;20409;-62
2023/06/18 12:17:59;;;;;;;3.63;3.07;;;31.30;41.70;;;;;;4995046;28;20458;-62
2023/06/18 12:20:28;;;;;;;3.70;3.40;;;31.30;42.30;;;;;;4995222;28;21029;-62
2023/06/18 12:22:55;;;;;;;3.10;2.80;;;31.40;41.30;;;;;;4995233;28;20822;-63
2023/06/18 12:25:22;;;;;;;3.00;2.80;;;31.30;41.10;;;;;;4994436;28;20417;-61
2023/06/18 12:27:50;;;;;;;3.50;3.20;;;31.30;40.70;;;;;;4995332;28;20423;-63
2023/06/18 12:30:16;;;;;;;2.90;2.60;;;31.30;41.30;;;;;;4994932;28;20418;-62
2023/06/18 12:32:42;;;;;;;3.97;3.43;;;31.30;40.80;;;;;;4995017;28;20422;-60
2023/06/18 12:35:19;;;;;;;2.63;2.40;;;31.30;39.90;;;;;;4994695;28;20207;-62
2023/06/18 12:37:46;;;;;;;2.50;2.30;;;31.30;40.50;;;;;;4994747;28;20783;-59
2023/06/18 12:40:24;;;;;;;3.17;2.87;;;31.20;40.50;;;;;;4994745;28;20900;-62
2023/06/18 12:42:51;;;;;;;2.87;2.67;;;31.20;41.10;;;;;;4994853;28;20389;-60
2023/06/18 12:45:23;;;;;;;2.90;2.70;;;31.10;41.90;;;;;;4994326;28;20741;-62
2023/06/18 12:47:49;;;;;;;3.13;2.93;;;31.20;42.50;;;;;;4994764;28;20468;-61
2023/06/18 12:50:24;;;;;;;3.60;3.30;;;31.20;42.20;;;;;;4994850;28;20502;-61
2023/06/18 12:52:50;;;;;;;2.87;2.70;;;31.30;42.00;;;;;;4994735;28;20202;-63
2023/06/18 12:55:17;;;;;;;2.93;2.73;;;31.30;42.70;;;;;;4994159;28;20505;-62
2023/06/18 12:57:43;;;;;;;2.87;2.67;;;31.40;42.80;;;;;;4994454;28;20463;-62
2023/06/18 13:00:27;;;;;;;2.93;2.73;;;31.40;42.90;;;;;;4994515;28;20502;-60
2023/06/18 13:02:53;;;;;;;3.87;3.57;;;31.60;42.10;;;;;;4994296;28;20404;-61
2023/06/18 13:05:19;;;;;;;3.83;3.53;;;31.50;41.60;;;;;;4994569;28;20436;-62
2023/06/18 13:07:52;;;;;;;4.17;3.80;;;31.40;41.70;;;;;;4994806;28;20190;-61
2023/06/18 13:10:19;;;;;;;3.10;2.90;;;31.30;41.50;;;;;;4994641;28;20190;-60
2023/06/18 13:12:44;;;;;;;2.80;2.70;;;31.30;42.00;;;;;;4994753;28;20502;-61
2023/06/18 13:15:10;;;;;;;3.73;3.43;;;31.30;41.60;;;;;;4993935;28;20541;-62
2023/06/18 13:17:36;;;;;;;3.10;2.83;;;31.20;41.90;;;;;;4994360;28;20204;-62
2023/06/18 13:20:04;;;;;;;2.87;2.67;;;31.10;41.90;;;;;;4994073;28;20436;-59
2023/06/18 13:22:29;;;;;;;3.73;3.43;;;31.10;41.70;;;;;;4993529;28;20901;-62
2023/06/18 13:24:57;;;;;;;3.00;2.80;;;31.10;42.20;;;;;;4993782;28;20488;-62
2023/06/18 13:27:24;;;;;;;2.63;2.43;;;31.30;41.60;;;;;;4994245;28;20254;-61
2023/06/18 13:29:50;;;;;;;3.50;3.00;;;31.30;41.90;;;;;;4994234;28;20382;-62
2023/06/18 13:32:16;;;;;;;3.60;3.30;;;31.30;41.90;;;;;;4994159;28;20901;-61
2023/06/18 13:34:41;;;;;;;3.50;3.20;;;31.30;42.20;;;;;;4993599;28;20409;-61
2023/06/18 13:37:07;;;;;;;2.80;2.60;;;31.30;42.10;;;;;;4993083;28;20262;-59
2023/06/18 13:39:33;;;;;;;2.73;2.63;;;31.40;42.20;;;;;;4994028;28;20183;-62
2023/06/18 13:41:59;;;;;;;3.50;2.97;;;31.50;41.70;;;;;;4993985;28;20202;-60
2023/06/18 13:44:24;;;;;;;3.17;2.87;;;31.50;41.70;;;;;;4993461;28;20911;-60
2023/06/18 13:46:50;;;;;;;3.00;2.80;;;31.40;41.80;;;;;;4993832;28;20439;-58
2023/06/18 13:49:16;;;;;;;3.30;3.00;;;31.40;42.00;;;;;;4993879;28;20184;-62
2023/06/18 13:51:42;;;;;;;3.10;2.80;;;31.30;42.80;;;;;;4993687;28;20390;-60
2023/06/18 13:54:07;;;;;;;3.80;3.50;;;31.30;42.60;;;;;;4993470;28;20291;-60
2023/06/18 13:56:33;;;;;;;3.93;3.63;;;31.40;42.30;;;;;;4993850;28;20180;-61
2023/06/18 13:58:58;;;;;;;3.40;3.20;;;31.40;42.30;;;;;;4993224;28;20207;-60
2023/06/18 14:01:24;;;;;;;3.07;2.87;;;31.40;42.00;;;;;;4993861;28;20195;-60
2023/06/18 14:03:49;;;;;;;2.70;2.50;;;31.30;42.30;;;;;;4993462;28;20226;-61
2023/06/18 14:06:15;;;;;;;3.50;3.20;;;31.30;42.50;;;;;;4993431;28;20282;-63
2023/06/18 14:08:42;;;;;;;4.23;3.83;;;31.10;42.30;;;;;;4994194;28;20187;-62
2023/06/18 14:11:08;;;;;;;3.30;3.10;;;31.00;42.50;;;;;;4993771;28;20213;-62
2023/06/18 14:13:33;;;;;;;3.20;2.90;;;30.90;43.30;;;;;;4995628;28;20450;-62
2023/06/18 14:15:59;;;;;;;2.70;2.50;;;30.90;43.10;;;;;;4997648;28;20437;-59
2023/06/18 14:18:25;;;;;;;3.20;3.00;;;31.00;42.70;;;;;;4997462;28;20199;-61
2023/06/18 14:20:50;;;;;;;3.60;3.30;;;31.00;42.50;;;;;;4997033;28;20270;-60
2023/06/18 14:23:16;;;;;;;2.83;2.63;;;31.00;42.80;;;;;;4997138;28;20168;-62
2023/06/18 14:25:44;;;;;;;3.13;2.90;;;31.10;43.30;;;;;;4997271;28;20184;-62
2023/06/18 14:28:10;;;;;;;3.63;3.33;;;31.10;43.20;;;;;;4997307;28;20202;-61
2023/06/18 14:30:36;;;;;;;3.93;2.77;;;31.20;43.10;;;;;;4996835;28;20428;-61
2023/06/18 14:33:02;;;;;;;3.20;2.90;;;31.40;43.30;;;;;;4997394;28;20381;-60
2023/06/18 14:35:27;;;;;;;3.33;3.07;;;31.40;43.30;;;;;;4996784;28;20227;-59
2023/06/18 14:37:53;;;;;;;2.60;2.43;;;31.40;42.70;;;;;;4997076;28;20592;-60
2023/06/18 14:40:19;;;;;;;2.93;2.70;;;31.50;41.90;;;;;;4997016;28;20179;-62
2023/06/18 14:42:44;;;;;;;3.33;3.10;;;31.50;41.40;;;;;;4997155;28;20168;-61
2023/06/18 14:45:10;;;;;;;3.40;3.10;;;31.40;41.70;;;;;;4996489;28;20203;-62
2023/06/18 14:47:40;;;;;;;3.90;3.60;;;31.30;42.00;;;;;;4997016;28;20773;-61
2023/06/18 14:50:07;;;;;;;2.97;2.77;;;31.20;42.60;;;;;;4996907;28;20381;-60
2023/06/18 14:52:33;;;;;;;3.87;3.57;;;31.20;42.50;;;;;;4995531;28;20900;-61
2023/06/18 14:54:59;;;;;;;3.20;3.00;;;31.20;42.40;;;;;;4996432;28;20525;-63
2023/06/18 14:57:25;;;;;;;3.33;3.03;;;31.20;42.80;;;;;;4996912;28;20546;-61
2023/06/18 14:59:53;;;;;;;3.27;3.07;;;31.20;42.90;;;;;;4996976;28;20183;-59
2023/06/18 15:02:19;;;;;;;4.07;3.77;;;31.30;43.20;;;;;;4996443;28;20785;-62
2023/06/18 15:04:45;;;;;;;4.20;3.90;;;31.30;43.20;;;;;;4995931;28;20442;-59
2023/06/18 15:07:11;;;;;;;3.87;3.50;;;31.40;42.30;;;;;;4997044;28;20207;-62
2023/06/18 15:09:36;;;;;;;3.30;3.10;;;31.40;43.20;;;;;;4996791;28;20168;-61
2023/06/18 15:12:02;;;;;;;3.60;3.40;;;31.50;42.50;;;;;;4996660;28;20769;-63
2023/06/18 15:14:27;;;;;;;3.77;3.47;;;31.60;43.00;;;;;;4995015;28;20202;-63
2023/06/18 15:16:53;;;;;;;3.13;2.93;;;31.70;42.60;;;;;;4996507;28;20183;-60
2023/06/18 15:19:19;;;;;;;2.83;2.63;;;31.70;42.30;;;;;;4996179;28;20207;-61
2023/06/18 15:21:44;;;;;;;3.90;3.50;;;31.90;42.90;;;;;;4996398;28;20175;-62
2023/06/18 15:24:10;;;;;;;4.10;3.80;;;32.00;42.50;;;;;;4995715;28;20238;-63
2023/06/18 15:26:35;;;;;;;3.13;2.87;;;32.10;42.60;;;;;;4996116;28;20179;-61
2023/06/18 15:29:01;;;;;;;3.93;3.57;;;32.10;42.10;;;;;;4996373;28;20215;-61
2023/06/18 15:31:26;;;;;;;3.60;3.30;;;32.20;42.10;;;;;;4996231;28;20186;-59
2023/06/18 15:33:52;;;;;;;4.20;3.50;;;32.20;42.20;;;;;;4995860;28;20183;-64
2023/06/18 15:36:18;;;;;;;3.20;2.90;;;32.20;43.40;;;;;;4996338;28;20638;-62
2023/06/18 15:38:47;;;;;;;3.90;3.60;;;32.30;43.50;;;;;;4994858;28;20555;-63
2023/06/18 15:41:13;;;;;;;4.43;3.73;;;32.20;43.20;;;;;;4996138;28;20557;-59
2023/06/18 15:43:38;;;;;;;4.50;4.13;;;32.20;43.90;;;;;;4995880;28;20390;-61
2023/06/18 15:46:04;;;;;;;3.93;3.67;;;32.20;43.70;;;;;;4995807;28;20195;-59
2023/06/18 15:48:29;;;;;;;4.57;4.17;;;32.20;43.80;;;;;;4995907;28;20180;-63
2023/06/18 15:50:56;;;;;;;8.43;5.13;;;32.20;43.90;;;;;;4996063;28;20187;-61
2023/06/18 15:53:21;;;;;;;6.60;5.00;;;32.20;44.30;;;;;;4995343;28;20184;-64
2023/06/18 15:55:47;;;;;;;4.20;3.80;;;32.10;44.30;;;;;;4995636;28;20488;-61
2023/06/18 15:58:15;;;;;;;4.90;4.50;;;32.10;44.40;;;;;;4985926;28;20208;-64
2023/06/18 16:00:41;;;;;;;6.47;4.10;;;32.00;43.90;;;;;;4976407;28;20180;-61
2023/06/18 16:03:07;;;;;;;4.47;4.07;;;31.90;43.80;;;;;;4975973;28;20431;-64
2023/06/18 16:05:33;;;;;;;4.20;3.90;;;31.90;43.90;;;;;;4975799;28;20959;-62
2023/06/18 16:07:59;;;;;;;4.33;3.93;;;31.80;43.80;;;;;;4976239;28;20884;-59
2023/06/18 16:10:24;;;;;;;3.73;3.43;;;31.70;44.00;;;;;;4976011;28;20484;-62
2023/06/18 16:12:50;;;;;;;4.57;4.20;;;31.50;43.90;;;;;;4976032;28;20623;-62
2023/06/18 16:15:16;;;;;;;4.77;4.43;;;31.40;44.20;;;;;;4975368;28;20247;-63
2023/06/18 16:17:41;;;;;;;4.47;4.17;;;31.30;44.10;;;;;;4978287;28;20669;-64
2023/06/18 16:20:07;;;;;;;4.50;4.10;;;31.30;44.20;;;;;;4995078;28;20176;-64
2023/06/18 16:22:33;;;;;;;4.03;3.73;;;31.20;44.10;;;;;;4995493;28;20186;-61
2023/06/18 16:24:58;;;;;;;4.30;4.00;;;31.10;44.00;;;;;;4994897;28;20405;-62
2023/06/18 16:27:24;;;;;;;4.93;4.53;;;31.00;44.10;;;;;;4995332;28;20176;-64
2023/06/18 16:29:51;;;;;;;5.63;4.80;;;30.90;44.50;;;;;;4995014;28;20230;-63
2023/06/18 16:32:16;;;;;;;4.70;4.27;;;30.90;44.60;;;;;;4995301;28;20174;-62
2023/06/18 16:34:42;;;;;;;4.43;4.03;;;30.80;44.90;;;;;;4994148;28;20817;-66
2023/06/18 16:37:07;;;;;;;4.47;4.17;;;30.60;45.30;;;;;;4994544;28;20168;-66
2023/06/18 16:39:33;;;;;;;4.43;3.93;;;30.50;45.40;;;;;;4993854;28;20214;-65
2023/06/18 16:41:59;;;;;;;5.00;4.50;;;30.40;45.60;;;;;;4994681;28;20221;-65
2023/06/18 16:44:25;;;;;;;4.60;4.20;;;30.30;45.60;;;;;;4992888;28;20195;-64
2023/06/18 16:46:52;;;;;;;4.60;4.20;;;30.30;45.80;;;;;;4994570;28;20384;-63
2023/06/18 16:49:17;;;;;;;4.93;4.53;;;30.20;46.00;;;;;;4994660;28;20680;-64
2023/06/18 16:51:45;;;;;;;4.23;3.83;;;30.20;46.50;;;;;;4994752;28;20403;-63